sensor_id;sensor_type;location;lat;lon;timestamp;P1;durP1;ratioP1;P2;durP2;ratioP2
20322;SDS011;10319;52.206;20.996;2023-03-08T00:02:17;7.53;;;1.50;;
20322;SDS011;10319;52.206;20.996;2023-03-08T00:04:42;5.00;;;1.23;;
20322;SDS011;10319;52.206;20.996;2023-03-08T00:07:07;8.40;;;1.70;;
20322;SDS011;10319;52.206;20.996;2023-03-08T00:09:32;7.87;;;1.80;;
20322;SDS011;10319;52.206;20.996;2023-03-08T00:11:58;8.53;;;1.67;;
20322;SDS011;10319;52.206;20.996;2023-03-08T00:14:23;6.70;;;1.50;;
20322;SDS011;10319;52.206;20.996;2023-03-08T00:16:48;7.53;;;1.80;;
20322;SDS011;10319;52.206;20.996;2023-03-08T00:19:13;7.40;;;1.60;;
20322;SDS011;10319;52.206;20.996;2023-03-08T00:21:38;10.10;;;2.23;;
20322;SDS011;10319;52.206;20.996;2023-03-08T00:24:04;8.53;;;2.30;;
20322;SDS011;10319;52.206;20.996;2023-03-08T00:26:29;9.63;;;2.47;;
20322;SDS011;10319;52.206;20.996;2023-03-08T00:28:54;8.93;;;2.40;;
20322;SDS011;10319;52.206;20.996;2023-03-08T00:31:20;9.83;;;2.27;;
20322;SDS011;10319;52.206;20.996;2023-03-08T00:33:45;9.13;;;2.13;;
20322;SDS011;10319;52.206;20.996;2023-03-08T00:36:14;11.73;;;2.77;;
20322;SDS011;10319;52.206;20.996;2023-03-08T00:38:40;9.90;;;2.20;;
20322;SDS011;10319;52.206;20.996;2023-03-08T00:41:05;9.67;;;2.33;;
20322;SDS011;10319;52.206;20.996;2023-03-08T00:43:31;9.47;;;2.43;;
20322;SDS011;10319;52.206;20.996;2023-03-08T00:45:56;9.73;;;2.60;;
20322;SDS011;10319;52.206;20.996;2023-03-08T00:48:22;10.13;;;2.60;;
20322;SDS011;10319;52.206;20.996;2023-03-08T00:50:47;11.20;;;2.80;;
20322;SDS011;10319;52.206;20.996;2023-03-08T00:53:12;10.53;;;2.50;;
20322;SDS011;10319;52.206;20.996;2023-03-08T00:55:38;11.53;;;2.60;;
20322;SDS011;10319;52.206;20.996;2023-03-08T00:58:03;10.00;;;2.60;;
20322;SDS011;10319;52.206;20.996;2023-03-08T01:00:29;8.47;;;2.50;;
20322;SDS011;10319;52.206;20.996;2023-03-08T01:02:55;8.93;;;2.50;;
20322;SDS011;10319;52.206;20.996;2023-03-08T01:05:21;9.10;;;2.23;;
20322;SDS011;10319;52.206;20.996;2023-03-08T01:07:46;8.57;;;2.20;;
20322;SDS011;10319;52.206;20.996;2023-03-08T01:10:11;10.13;;;2.30;;
20322;SDS011;10319;52.206;20.996;2023-03-08T01:12:37;8.43;;;2.10;;
20322;SDS011;10319;52.206;20.996;2023-03-08T01:15:03;10.07;;;2.30;;
20322;SDS011;10319;52.206;20.996;2023-03-08T01:17:28;9.37;;;2.10;;
20322;SDS011;10319;52.206;20.996;2023-03-08T01:19:53;6.13;;;1.87;;
20322;SDS011;10319;52.206;20.996;2023-03-08T01:22:19;7.60;;;1.87;;
20322;SDS011;10319;52.206;20.996;2023-03-08T01:24:45;5.07;;;1.40;;
20322;SDS011;10319;52.206;20.996;2023-03-08T01:27:10;6.07;;;1.50;;
20322;SDS011;10319;52.206;20.996;2023-03-08T01:29:35;7.20;;;1.83;;
20322;SDS011;10319;52.206;20.996;2023-03-08T01:32:00;8.10;;;2.10;;
20322;SDS011;10319;52.206;20.996;2023-03-08T01:34:26;13.43;;;2.23;;
20322;SDS011;10319;52.206;20.996;2023-03-08T01:36:51;11.10;;;2.20;;
20322;SDS011;10319;52.206;20.996;2023-03-08T01:39:16;9.87;;;2.20;;
20322;SDS011;10319;52.206;20.996;2023-03-08T01:41:42;7.70;;;2.10;;
20322;SDS011;10319;52.206;20.996;2023-03-08T01:44:10;7.60;;;2.00;;
20322;SDS011;10319;52.206;20.996;2023-03-08T01:46:38;9.83;;;2.33;;
20322;SDS011;10319;52.206;20.996;2023-03-08T01:51:39;11.77;;;2.70;;
20322;SDS011;10319;52.206;20.996;2023-03-08T01:54:11;9.87;;;2.43;;
20322;SDS011;10319;52.206;20.996;2023-03-08T01:56:37;12.73;;;2.70;;
20322;SDS011;10319;52.206;20.996;2023-03-08T01:59:03;11.63;;;2.73;;
20322;SDS011;10319;52.206;20.996;2023-03-08T02:01:28;13.00;;;2.80;;
20322;SDS011;10319;52.206;20.996;2023-03-08T02:03:54;6.80;;;2.07;;
20322;SDS011;10319;52.206;20.996;2023-03-08T02:06:20;6.73;;;1.80;;
20322;SDS011;10319;52.206;20.996;2023-03-08T02:08:45;8.70;;;1.60;;
20322;SDS011;10319;52.206;20.996;2023-03-08T02:11:11;7.67;;;1.87;;
20322;SDS011;10319;52.206;20.996;2023-03-08T02:13:37;7.13;;;1.50;;
20322;SDS011;10319;52.206;20.996;2023-03-08T02:16:03;8.03;;;1.70;;
20322;SDS011;10319;52.206;20.996;2023-03-08T02:18:30;7.43;;;1.37;;
20322;SDS011;10319;52.206;20.996;2023-03-08T02:20:55;10.30;;;1.77;;
20322;SDS011;10319;52.206;20.996;2023-03-08T02:23:22;9.73;;;1.77;;
20322;SDS011;10319;52.206;20.996;2023-03-08T02:25:55;8.73;;;1.93;;
20322;SDS011;10319;52.206;20.996;2023-03-08T02:28:22;7.20;;;1.80;;
20322;SDS011;10319;52.206;20.996;2023-03-08T02:30:48;9.70;;;1.70;;
20322;SDS011;10319;52.206;20.996;2023-03-08T02:33:14;7.73;;;1.70;;
20322;SDS011;10319;52.206;20.996;2023-03-08T02:35:39;9.10;;;1.77;;
20322;SDS011;10319;52.206;20.996;2023-03-08T02:38:07;6.20;;;1.43;;
20322;SDS011;10319;52.206;20.996;2023-03-08T02:40:32;6.77;;;1.60;;
20322;SDS011;10319;52.206;20.996;2023-03-08T02:42:57;8.03;;;1.60;;
20322;SDS011;10319;52.206;20.996;2023-03-08T02:45:23;9.07;;;1.57;;
20322;SDS011;10319;52.206;20.996;2023-03-08T02:47:48;6.83;;;1.70;;
20322;SDS011;10319;52.206;20.996;2023-03-08T02:50:13;6.53;;;1.50;;
20322;SDS011;10319;52.206;20.996;2023-03-08T02:52:38;6.67;;;1.27;;
20322;SDS011;10319;52.206;20.996;2023-03-08T02:55:04;6.10;;;1.50;;
20322;SDS011;10319;52.206;20.996;2023-03-08T02:57:29;7.00;;;1.17;;
20322;SDS011;10319;52.206;20.996;2023-03-08T02:59:54;6.07;;;1.20;;
20322;SDS011;10319;52.206;20.996;2023-03-08T03:02:20;7.33;;;1.57;;
20322;SDS011;10319;52.206;20.996;2023-03-08T03:04:45;5.70;;;1.30;;
20322;SDS011;10319;52.206;20.996;2023-03-08T03:07:10;6.87;;;1.10;;
20322;SDS011;10319;52.206;20.996;2023-03-08T03:09:35;6.83;;;1.43;;
20322;SDS011;10319;52.206;20.996;2023-03-08T03:12:01;6.47;;;1.20;;
20322;SDS011;10319;52.206;20.996;2023-03-08T03:14:26;7.87;;;1.47;;
20322;SDS011;10319;52.206;20.996;2023-03-08T03:16:52;7.53;;;1.63;;
20322;SDS011;10319;52.206;20.996;2023-03-08T03:19:17;5.37;;;1.30;;
20322;SDS011;10319;52.206;20.996;2023-03-08T03:21:42;8.07;;;1.70;;
20322;SDS011;10319;52.206;20.996;2023-03-08T03:24:07;9.37;;;1.60;;
20322;SDS011;10319;52.206;20.996;2023-03-08T03:26:33;8.73;;;1.57;;
20322;SDS011;10319;52.206;20.996;2023-03-08T03:28:58;6.67;;;1.60;;
20322;SDS011;10319;52.206;20.996;2023-03-08T03:31:24;8.17;;;1.47;;
20322;SDS011;10319;52.206;20.996;2023-03-08T03:33:49;8.43;;;1.90;;
20322;SDS011;10319;52.206;20.996;2023-03-08T03:36:16;8.70;;;1.90;;
20322;SDS011;10319;52.206;20.996;2023-03-08T03:38:42;8.97;;;2.00;;
20322;SDS011;10319;52.206;20.996;2023-03-08T03:41:08;9.83;;;2.30;;
20322;SDS011;10319;52.206;20.996;2023-03-08T03:43:34;9.23;;;2.27;;
20322;SDS011;10319;52.206;20.996;2023-03-08T03:46:00;7.53;;;1.97;;
20322;SDS011;10319;52.206;20.996;2023-03-08T03:48:25;11.70;;;2.80;;
20322;SDS011;10319;52.206;20.996;2023-03-08T03:50:55;10.70;;;2.70;;
20322;SDS011;10319;52.206;20.996;2023-03-08T03:53:21;12.27;;;2.87;;
20322;SDS011;10319;52.206;20.996;2023-03-08T03:55:46;11.00;;;3.00;;
20322;SDS011;10319;52.206;20.996;2023-03-08T03:58:11;12.77;;;3.30;;
20322;SDS011;10319;52.206;20.996;2023-03-08T04:00:37;12.50;;;3.37;;
20322;SDS011;10319;52.206;20.996;2023-03-08T04:03:02;15.47;;;3.70;;
20322;SDS011;10319;52.206;20.996;2023-03-08T04:05:27;14.13;;;3.90;;
20322;SDS011;10319;52.206;20.996;2023-03-08T04:07:52;13.83;;;4.13;;
20322;SDS011;10319;52.206;20.996;2023-03-08T04:10:18;14.27;;;4.00;;
20322;SDS011;10319;52.206;20.996;2023-03-08T04:12:43;13.17;;;4.07;;
20322;SDS011;10319;52.206;20.996;2023-03-08T04:15:08;13.83;;;3.97;;
20322;SDS011;10319;52.206;20.996;2023-03-08T04:17:33;14.53;;;4.20;;
20322;SDS011;10319;52.206;20.996;2023-03-08T04:19:59;15.60;;;4.57;;
20322;SDS011;10319;52.206;20.996;2023-03-08T04:22:24;16.10;;;4.60;;
20322;SDS011;10319;52.206;20.996;2023-03-08T04:24:49;16.10;;;4.53;;
20322;SDS011;10319;52.206;20.996;2023-03-08T04:27:14;16.67;;;5.00;;
20322;SDS011;10319;52.206;20.996;2023-03-08T04:29:39;14.33;;;4.60;;
20322;SDS011;10319;52.206;20.996;2023-03-08T04:32:05;14.57;;;4.60;;
20322;SDS011;10319;52.206;20.996;2023-03-08T04:34:30;15.37;;;4.60;;
20322;SDS011;10319;52.206;20.996;2023-03-08T04:36:55;15.80;;;5.20;;
20322;SDS011;10319;52.206;20.996;2023-03-08T04:39:20;16.47;;;5.40;;
20322;SDS011;10319;52.206;20.996;2023-03-08T04:41:46;17.03;;;5.70;;
20322;SDS011;10319;52.206;20.996;2023-03-08T04:44:11;16.87;;;5.93;;
20322;SDS011;10319;52.206;20.996;2023-03-08T04:46:36;17.03;;;5.80;;
20322;SDS011;10319;52.206;20.996;2023-03-08T04:49:01;15.67;;;5.60;;
20322;SDS011;10319;52.206;20.996;2023-03-08T04:51:26;18.93;;;7.30;;
20322;SDS011;10319;52.206;20.996;2023-03-08T04:53:52;17.70;;;7.03;;
20322;SDS011;10319;52.206;20.996;2023-03-08T04:56:17;19.87;;;6.93;;
20322;SDS011;10319;52.206;20.996;2023-03-08T04:58:43;19.00;;;7.30;;
20322;SDS011;10319;52.206;20.996;2023-03-08T05:03:33;17.63;;;7.10;;
20322;SDS011;10319;52.206;20.996;2023-03-08T05:05:59;18.87;;;7.50;;
20322;SDS011;10319;52.206;20.996;2023-03-08T05:08:24;18.20;;;7.43;;
20322;SDS011;10319;52.206;20.996;2023-03-08T05:10:52;18.13;;;6.87;;
20322;SDS011;10319;52.206;20.996;2023-03-08T05:13:19;18.63;;;7.00;;
20322;SDS011;10319;52.206;20.996;2023-03-08T05:15:44;19.17;;;7.50;;
20322;SDS011;10319;52.206;20.996;2023-03-08T05:18:09;19.87;;;7.20;;
20322;SDS011;10319;52.206;20.996;2023-03-08T05:20:35;23.87;;;7.33;;
20322;SDS011;10319;52.206;20.996;2023-03-08T05:23:00;15.87;;;6.10;;
20322;SDS011;10319;52.206;20.996;2023-03-08T05:25:25;17.93;;;6.53;;
20322;SDS011;10319;52.206;20.996;2023-03-08T05:27:50;16.90;;;6.73;;
20322;SDS011;10319;52.206;20.996;2023-03-08T05:30:16;19.47;;;7.10;;
20322;SDS011;10319;52.206;20.996;2023-03-08T05:32:41;18.37;;;6.70;;
20322;SDS011;10319;52.206;20.996;2023-03-08T05:35:06;18.60;;;6.77;;
20322;SDS011;10319;52.206;20.996;2023-03-08T05:37:33;17.90;;;7.47;;
20322;SDS011;10319;52.206;20.996;2023-03-08T05:39:58;16.67;;;6.43;;
20322;SDS011;10319;52.206;20.996;2023-03-08T05:42:23;18.80;;;6.87;;
20322;SDS011;10319;52.206;20.996;2023-03-08T05:44:49;16.07;;;6.43;;
20322;SDS011;10319;52.206;20.996;2023-03-08T05:47:14;20.03;;;7.17;;
20322;SDS011;10319;52.206;20.996;2023-03-08T05:49:39;18.80;;;7.33;;
20322;SDS011;10319;52.206;20.996;2023-03-08T05:52:04;17.60;;;6.43;;
20322;SDS011;10319;52.206;20.996;2023-03-08T05:54:29;16.93;;;6.67;;
20322;SDS011;10319;52.206;20.996;2023-03-08T05:56:55;17.20;;;6.67;;
20322;SDS011;10319;52.206;20.996;2023-03-08T05:59:20;18.83;;;7.07;;
20322;SDS011;10319;52.206;20.996;2023-03-08T06:01:45;18.03;;;6.80;;
20322;SDS011;10319;52.206;20.996;2023-03-08T06:04:10;17.57;;;6.70;;
20322;SDS011;10319;52.206;20.996;2023-03-08T06:06:36;19.33;;;6.47;;
20322;SDS011;10319;52.206;20.996;2023-03-08T06:09:01;17.87;;;7.00;;
20322;SDS011;10319;52.206;20.996;2023-03-08T06:11:26;17.37;;;7.07;;
20322;SDS011;10319;52.206;20.996;2023-03-08T06:13:52;18.03;;;6.67;;
20322;SDS011;10319;52.206;20.996;2023-03-08T06:16:18;17.90;;;6.87;;
20322;SDS011;10319;52.206;20.996;2023-03-08T06:18:43;18.43;;;7.10;;
20322;SDS011;10319;52.206;20.996;2023-03-08T06:21:13;17.63;;;6.57;;
20322;SDS011;10319;52.206;20.996;2023-03-08T06:23:39;19.53;;;6.53;;
20322;SDS011;10319;52.206;20.996;2023-03-08T06:26:05;18.17;;;6.40;;
20322;SDS011;10319;52.206;20.996;2023-03-08T06:28:30;17.73;;;6.00;;
20322;SDS011;10319;52.206;20.996;2023-03-08T06:30:55;16.93;;;6.13;;
20322;SDS011;10319;52.206;20.996;2023-03-08T06:33:22;18.17;;;5.77;;
20322;SDS011;10319;52.206;20.996;2023-03-08T06:36:21;19.13;;;5.97;;
20322;SDS011;10319;52.206;20.996;2023-03-08T06:38:39;16.70;;;5.47;;
20322;SDS011;10319;52.206;20.996;2023-03-08T06:41:05;16.40;;;5.77;;
20322;SDS011;10319;52.206;20.996;2023-03-08T06:43:31;16.23;;;5.50;;
20322;SDS011;10319;52.206;20.996;2023-03-08T06:45:56;19.03;;;6.00;;
20322;SDS011;10319;52.206;20.996;2023-03-08T06:48:21;16.60;;;5.43;;
20322;SDS011;10319;52.206;20.996;2023-03-08T06:50:47;16.20;;;5.43;;
20322;SDS011;10319;52.206;20.996;2023-03-08T06:53:12;19.03;;;5.87;;
20322;SDS011;10319;52.206;20.996;2023-03-08T06:55:38;15.17;;;5.33;;
20322;SDS011;10319;52.206;20.996;2023-03-08T06:58:04;19.60;;;5.10;;
20322;SDS011;10319;52.206;20.996;2023-03-08T07:00:29;16.37;;;4.97;;
20322;SDS011;10319;52.206;20.996;2023-03-08T07:02:54;17.20;;;5.10;;
20322;SDS011;10319;52.206;20.996;2023-03-08T07:05:20;16.60;;;5.20;;
20322;SDS011;10319;52.206;20.996;2023-03-08T07:07:45;17.40;;;4.83;;
20322;SDS011;10319;52.206;20.996;2023-03-08T07:10:10;14.77;;;4.63;;
20322;SDS011;10319;52.206;20.996;2023-03-08T07:12:38;19.00;;;5.43;;
20322;SDS011;10319;52.206;20.996;2023-03-08T07:15:07;13.83;;;4.80;;
20322;SDS011;10319;52.206;20.996;2023-03-08T07:17:32;16.50;;;5.47;;
20322;SDS011;10319;52.206;20.996;2023-03-08T07:19:59;16.33;;;4.77;;
20322;SDS011;10319;52.206;20.996;2023-03-08T07:22:24;16.70;;;4.80;;
20322;SDS011;10319;52.206;20.996;2023-03-08T07:24:50;17.50;;;5.00;;
20322;SDS011;10319;52.206;20.996;2023-03-08T07:27:15;18.93;;;4.90;;
20322;SDS011;10319;52.206;20.996;2023-03-08T07:29:40;15.87;;;4.93;;
20322;SDS011;10319;52.206;20.996;2023-03-08T07:32:06;14.27;;;4.60;;
20322;SDS011;10319;52.206;20.996;2023-03-08T07:34:31;16.47;;;4.57;;
20322;SDS011;10319;52.206;20.996;2023-03-08T07:36:56;20.20;;;4.80;;
20322;SDS011;10319;52.206;20.996;2023-03-08T07:39:21;19.83;;;4.97;;
20322;SDS011;10319;52.206;20.996;2023-03-08T07:41:47;15.50;;;5.20;;
20322;SDS011;10319;52.206;20.996;2023-03-08T07:44:13;13.13;;;4.40;;
20322;SDS011;10319;52.206;20.996;2023-03-08T07:46:39;16.43;;;5.10;;
20322;SDS011;10319;52.206;20.996;2023-03-08T07:49:04;16.53;;;5.23;;
20322;SDS011;10319;52.206;20.996;2023-03-08T07:51:34;16.83;;;4.70;;
20322;SDS011;10319;52.206;20.996;2023-03-08T07:53:59;14.27;;;4.50;;
20322;SDS011;10319;52.206;20.996;2023-03-08T07:56:24;14.10;;;4.53;;
20322;SDS011;10319;52.206;20.996;2023-03-08T07:58:50;16.03;;;4.63;;
20322;SDS011;10319;52.206;20.996;2023-03-08T08:01:15;16.53;;;4.37;;
20322;SDS011;10319;52.206;20.996;2023-03-08T08:03:40;14.13;;;4.43;;
20322;SDS011;10319;52.206;20.996;2023-03-08T08:06:06;13.87;;;4.20;;
20322;SDS011;10319;52.206;20.996;2023-03-08T08:08:31;16.40;;;4.70;;
20322;SDS011;10319;52.206;20.996;2023-03-08T08:10:57;15.30;;;4.40;;
20322;SDS011;10319;52.206;20.996;2023-03-08T08:13:22;16.27;;;4.40;;
20322;SDS011;10319;52.206;20.996;2023-03-08T08:15:55;15.23;;;4.40;;
20322;SDS011;10319;52.206;20.996;2023-03-08T08:18:21;16.47;;;4.30;;
20322;SDS011;10319;52.206;20.996;2023-03-08T08:20:46;16.07;;;4.20;;
20322;SDS011;10319;52.206;20.996;2023-03-08T08:23:11;13.93;;;4.23;;
20322;SDS011;10319;52.206;20.996;2023-03-08T08:25:37;15.10;;;4.33;;
20322;SDS011;10319;52.206;20.996;2023-03-08T08:28:03;14.03;;;4.07;;
20322;SDS011;10319;52.206;20.996;2023-03-08T08:30:28;16.47;;;4.50;;
20322;SDS011;10319;52.206;20.996;2023-03-08T08:32:53;18.77;;;4.40;;
20322;SDS011;10319;52.206;20.996;2023-03-08T08:35:18;16.97;;;4.43;;
20322;SDS011;10319;52.206;20.996;2023-03-08T08:37:44;13.77;;;4.47;;
20322;SDS011;10319;52.206;20.996;2023-03-08T08:40:09;13.83;;;4.40;;
20322;SDS011;10319;52.206;20.996;2023-03-08T08:42:36;15.70;;;3.97;;
20322;SDS011;10319;52.206;20.996;2023-03-08T08:45:01;14.67;;;4.03;;
20322;SDS011;10319;52.206;20.996;2023-03-08T08:47:29;15.03;;;4.30;;
20322;SDS011;10319;52.206;20.996;2023-03-08T08:49:55;16.40;;;4.20;;
20322;SDS011;10319;52.206;20.996;2023-03-08T08:52:20;13.40;;;3.83;;
20322;SDS011;10319;52.206;20.996;2023-03-08T08:54:45;14.93;;;4.20;;
20322;SDS011;10319;52.206;20.996;2023-03-08T08:57:11;13.47;;;4.17;;
20322;SDS011;10319;52.206;20.996;2023-03-08T08:59:36;13.97;;;4.20;;
20322;SDS011;10319;52.206;20.996;2023-03-08T09:02:01;14.83;;;4.30;;
20322;SDS011;10319;52.206;20.996;2023-03-08T09:04:27;13.53;;;3.80;;
20322;SDS011;10319;52.206;20.996;2023-03-08T09:06:52;13.07;;;3.67;;
20322;SDS011;10319;52.206;20.996;2023-03-08T09:09:18;14.13;;;3.63;;
20322;SDS011;10319;52.206;20.996;2023-03-08T09:11:43;14.27;;;4.10;;
20322;SDS011;10319;52.206;20.996;2023-03-08T09:14:08;15.80;;;4.50;;
20322;SDS011;10319;52.206;20.996;2023-03-08T09:16:33;13.90;;;4.03;;
20322;SDS011;10319;52.206;20.996;2023-03-08T09:19:00;13.53;;;3.43;;
20322;SDS011;10319;52.206;20.996;2023-03-08T09:21:25;13.10;;;3.20;;
20322;SDS011;10319;52.206;20.996;2023-03-08T09:23:52;13.93;;;3.50;;
20322;SDS011;10319;52.206;20.996;2023-03-08T09:26:17;13.10;;;3.80;;
20322;SDS011;10319;52.206;20.996;2023-03-08T09:28:43;11.50;;;3.10;;
20322;SDS011;10319;52.206;20.996;2023-03-08T09:31:09;15.97;;;3.70;;
20322;SDS011;10319;52.206;20.996;2023-03-08T09:33:40;14.10;;;3.27;;
20322;SDS011;10319;52.206;20.996;2023-03-08T09:36:06;12.07;;;3.20;;
20322;SDS011;10319;52.206;20.996;2023-03-08T09:38:31;12.97;;;3.33;;
20322;SDS011;10319;52.206;20.996;2023-03-08T09:43:44;11.00;;;3.07;;
20322;SDS011;10319;52.206;20.996;2023-03-08T09:46:15;15.47;;;3.37;;
20322;SDS011;10319;52.206;20.996;2023-03-08T09:48:42;13.30;;;3.30;;
20322;SDS011;10319;52.206;20.996;2023-03-08T09:51:11;12.10;;;3.13;;
20322;SDS011;10319;52.206;20.996;2023-03-08T09:56:10;12.97;;;2.90;;
20322;SDS011;10319;52.206;20.996;2023-03-08T09:58:40;13.70;;;3.20;;
20322;SDS011;10319;52.206;20.996;2023-03-08T10:01:51;10.73;;;2.97;;
20322;SDS011;10319;52.206;20.996;2023-03-08T10:14:34;12.47;;;2.63;;
20322;SDS011;10319;52.206;20.996;2023-03-08T10:17:01;11.53;;;2.90;;
20322;SDS011;10319;52.206;20.996;2023-03-08T10:22:01;15.57;;;2.87;;
20322;SDS011;10319;52.206;20.996;2023-03-08T10:24:30;11.63;;;2.70;;
20322;SDS011;10319;52.206;20.996;2023-03-08T10:29:49;12.47;;;2.80;;
20322;SDS011;10319;52.206;20.996;2023-03-08T10:32:15;13.43;;;3.20;;
20322;SDS011;10319;52.206;20.996;2023-03-08T10:34:40;11.50;;;3.00;;
20322;SDS011;10319;52.206;20.996;2023-03-08T10:37:05;13.17;;;3.00;;
20322;SDS011;10319;52.206;20.996;2023-03-08T10:39:31;12.83;;;2.93;;
20322;SDS011;10319;52.206;20.996;2023-03-08T10:41:58;13.23;;;3.30;;
20322;SDS011;10319;52.206;20.996;2023-03-08T10:47:52;11.73;;;2.90;;
20322;SDS011;10319;52.206;20.996;2023-03-08T10:52:40;13.13;;;3.00;;
20322;SDS011;10319;52.206;20.996;2023-03-08T10:55:16;10.90;;;2.80;;
20322;SDS011;10319;52.206;20.996;2023-03-08T10:57:52;10.37;;;2.77;;
20322;SDS011;10319;52.206;20.996;2023-03-08T11:02:44;13.27;;;2.63;;
20322;SDS011;10319;52.206;20.996;2023-03-08T11:05:17;13.43;;;2.90;;
20322;SDS011;10319;52.206;20.996;2023-03-08T11:07:49;10.17;;;2.53;;
20322;SDS011;10319;52.206;20.996;2023-03-08T11:10:15;11.90;;;2.60;;
20322;SDS011;10319;52.206;20.996;2023-03-08T11:12:42;13.13;;;2.50;;
20322;SDS011;10319;52.206;20.996;2023-03-08T11:15:17;15.50;;;2.93;;
20322;SDS011;10319;52.206;20.996;2023-03-08T11:17:50;11.57;;;2.70;;
20322;SDS011;10319;52.206;20.996;2023-03-08T11:20:38;13.73;;;2.90;;
20322;SDS011;10319;52.206;20.996;2023-03-08T11:23:14;9.83;;;2.80;;
20322;SDS011;10319;52.206;20.996;2023-03-08T11:25:44;11.70;;;2.60;;
20322;SDS011;10319;52.206;20.996;2023-03-08T11:31:04;15.23;;;3.30;;
20322;SDS011;10319;52.206;20.996;2023-03-08T11:33:37;14.17;;;3.50;;
20322;SDS011;10319;52.206;20.996;2023-03-08T11:36:26;13.40;;;2.70;;
20322;SDS011;10319;52.206;20.996;2023-03-08T11:38:57;11.97;;;3.27;;
20322;SDS011;10319;52.206;20.996;2023-03-08T11:46:18;11.20;;;2.70;;
20322;SDS011;10319;52.206;20.996;2023-03-08T11:54:21;12.67;;;2.90;;
20322;SDS011;10319;52.206;20.996;2023-03-08T11:56:58;13.60;;;2.83;;
20322;SDS011;10319;52.206;20.996;2023-03-08T12:05:21;10.27;;;2.50;;
20322;SDS011;10319;52.206;20.996;2023-03-08T12:07:42;10.13;;;2.40;;
20322;SDS011;10319;52.206;20.996;2023-03-08T12:12:42;9.90;;;2.50;;
20322;SDS011;10319;52.206;20.996;2023-03-08T12:17:47;9.17;;;2.40;;
20322;SDS011;10319;52.206;20.996;2023-03-08T12:20:15;14.60;;;2.97;;
20322;SDS011;10319;52.206;20.996;2023-03-08T12:22:44;11.90;;;2.53;;
20322;SDS011;10319;52.206;20.996;2023-03-08T12:25:13;10.67;;;2.60;;
20322;SDS011;10319;52.206;20.996;2023-03-08T12:27:59;10.63;;;2.80;;
20322;SDS011;10319;52.206;20.996;2023-03-08T12:32:50;11.73;;;2.63;;
20322;SDS011;10319;52.206;20.996;2023-03-08T12:38:03;11.13;;;2.37;;
20322;SDS011;10319;52.206;20.996;2023-03-08T12:45:35;8.83;;;1.97;;
20322;SDS011;10319;52.206;20.996;2023-03-08T12:50:39;9.17;;;2.20;;
20322;SDS011;10319;52.206;20.996;2023-03-08T12:58:33;10.23;;;2.10;;
20322;SDS011;10319;52.206;20.996;2023-03-08T13:01:02;9.67;;;2.27;;
20322;SDS011;10319;52.206;20.996;2023-03-08T13:03:30;9.00;;;2.40;;
20322;SDS011;10319;52.206;20.996;2023-03-08T13:06:00;10.97;;;2.30;;
20322;SDS011;10319;52.206;20.996;2023-03-08T13:08:39;9.93;;;2.40;;
20322;SDS011;10319;52.206;20.996;2023-03-08T13:11:16;9.93;;;2.03;;
20322;SDS011;10319;52.206;20.996;2023-03-08T13:13:55;8.03;;;1.97;;
20322;SDS011;10319;52.206;20.996;2023-03-08T13:16:36;8.90;;;1.80;;
20322;SDS011;10319;52.206;20.996;2023-03-08T13:21:31;10.87;;;2.37;;
20322;SDS011;10319;52.206;20.996;2023-03-08T13:24:02;11.23;;;2.33;;
20322;SDS011;10319;52.206;20.996;2023-03-08T13:26:33;10.03;;;2.20;;
20322;SDS011;10319;52.206;20.996;2023-03-08T13:29:08;8.83;;;2.03;;
20322;SDS011;10319;52.206;20.996;2023-03-08T13:31:35;9.33;;;2.00;;
20322;SDS011;10319;52.206;20.996;2023-03-08T13:34:01;12.57;;;2.40;;
20322;SDS011;10319;52.206;20.996;2023-03-08T13:36:27;8.60;;;2.10;;
20322;SDS011;10319;52.206;20.996;2023-03-08T13:39:06;8.13;;;2.07;;
20322;SDS011;10319;52.206;20.996;2023-03-08T13:41:41;10.07;;;2.30;;
20322;SDS011;10319;52.206;20.996;2023-03-08T13:44:14;9.43;;;2.33;;
20322;SDS011;10319;52.206;20.996;2023-03-08T13:46:40;11.57;;;2.70;;
20322;SDS011;10319;52.206;20.996;2023-03-08T13:49:41;10.87;;;2.50;;
20322;SDS011;10319;52.206;20.996;2023-03-08T13:51:59;10.20;;;2.40;;
20322;SDS011;10319;52.206;20.996;2023-03-08T13:56:53;9.57;;;2.27;;
20322;SDS011;10319;52.206;20.996;2023-03-08T13:59:19;8.10;;;2.10;;
20322;SDS011;10319;52.206;20.996;2023-03-08T14:01:45;12.17;;;2.57;;
20322;SDS011;10319;52.206;20.996;2023-03-08T14:04:12;10.77;;;2.67;;
20322;SDS011;10319;52.206;20.996;2023-03-08T14:06:46;11.50;;;2.60;;
20322;SDS011;10319;52.206;20.996;2023-03-08T14:09:12;9.40;;;2.20;;
20322;SDS011;10319;52.206;20.996;2023-03-08T14:11:38;10.47;;;2.70;;
20322;SDS011;10319;52.206;20.996;2023-03-08T14:14:04;11.40;;;2.70;;
20322;SDS011;10319;52.206;20.996;2023-03-08T14:16:36;9.00;;;2.13;;
20322;SDS011;10319;52.206;20.996;2023-03-08T14:21:59;8.13;;;2.07;;
20322;SDS011;10319;52.206;20.996;2023-03-08T14:24:25;10.43;;;2.30;;
20322;SDS011;10319;52.206;20.996;2023-03-08T14:26:55;9.53;;;2.30;;
20322;SDS011;10319;52.206;20.996;2023-03-08T14:29:24;9.63;;;2.23;;
20322;SDS011;10319;52.206;20.996;2023-03-08T14:31:54;10.40;;;2.70;;
20322;SDS011;10319;52.206;20.996;2023-03-08T14:34:20;12.17;;;2.93;;
20322;SDS011;10319;52.206;20.996;2023-03-08T14:36:56;9.03;;;2.40;;
20322;SDS011;10319;52.206;20.996;2023-03-08T14:39:22;10.70;;;2.50;;
20322;SDS011;10319;52.206;20.996;2023-03-08T14:41:48;10.70;;;2.43;;
20322;SDS011;10319;52.206;20.996;2023-03-08T14:44:21;9.30;;;2.33;;
20322;SDS011;10319;52.206;20.996;2023-03-08T14:46:47;11.83;;;2.43;;
20322;SDS011;10319;52.206;20.996;2023-03-08T14:49:20;10.57;;;2.60;;
20322;SDS011;10319;52.206;20.996;2023-03-08T14:51:45;10.17;;;2.70;;
20322;SDS011;10319;52.206;20.996;2023-03-08T14:54:44;11.67;;;2.60;;
20322;SDS011;10319;52.206;20.996;2023-03-08T14:57:16;12.67;;;2.87;;
20322;SDS011;10319;52.206;20.996;2023-03-08T14:59:41;10.93;;;2.80;;
20322;SDS011;10319;52.206;20.996;2023-03-08T15:02:11;12.87;;;2.90;;
20322;SDS011;10319;52.206;20.996;2023-03-08T15:04:36;10.37;;;2.40;;
20322;SDS011;10319;52.206;20.996;2023-03-08T15:07:02;10.90;;;2.60;;
20322;SDS011;10319;52.206;20.996;2023-03-08T15:09:27;11.87;;;3.17;;
20322;SDS011;10319;52.206;20.996;2023-03-08T15:11:54;11.03;;;2.70;;
20322;SDS011;10319;52.206;20.996;2023-03-08T15:14:23;11.90;;;2.93;;
20322;SDS011;10319;52.206;20.996;2023-03-08T15:16:49;11.73;;;3.00;;
20322;SDS011;10319;52.206;20.996;2023-03-08T15:19:15;10.23;;;2.60;;
20322;SDS011;10319;52.206;20.996;2023-03-08T15:21:40;15.30;;;3.20;;
20322;SDS011;10319;52.206;20.996;2023-03-08T15:24:06;10.60;;;3.00;;
20322;SDS011;10319;52.206;20.996;2023-03-08T15:26:31;12.57;;;2.90;;
20322;SDS011;10319;52.206;20.996;2023-03-08T15:28:57;11.23;;;3.00;;
20322;SDS011;10319;52.206;20.996;2023-03-08T15:31:22;10.90;;;2.93;;
20322;SDS011;10319;52.206;20.996;2023-03-08T15:33:48;13.90;;;3.53;;
20322;SDS011;10319;52.206;20.996;2023-03-08T15:36:14;11.53;;;3.03;;
20322;SDS011;10319;52.206;20.996;2023-03-08T15:38:39;11.93;;;3.00;;
20322;SDS011;10319;52.206;20.996;2023-03-08T15:41:05;11.97;;;3.47;;
20322;SDS011;10319;52.206;20.996;2023-03-08T15:43:30;12.87;;;3.10;;
20322;SDS011;10319;52.206;20.996;2023-03-08T15:45:57;10.93;;;2.80;;
20322;SDS011;10319;52.206;20.996;2023-03-08T15:48:22;11.70;;;3.47;;
20322;SDS011;10319;52.206;20.996;2023-03-08T15:50:47;11.87;;;2.97;;